sensor_id;sensor_type;location;lat;lon;timestamp;pressure;altitude;pressure_sealevel;temperature;humidity
13434;BME280;6789;47.678;9.158;2023-11-19T00:37:35;53339.22;;;-138.23;84.15
13434;BME280;6789;47.678;9.158;2023-11-19T01:05:10;53345.22;;;-138.23;81.31
13434;BME280;6789;47.678;9.158;2023-11-19T01:21:04;53329.16;;;-138.23;80.31
13434;BME280;6789;47.678;9.158;2023-11-19T02:53:03;53349.25;;;-138.23;84.31
13434;BME280;6789;47.678;9.158;2023-11-19T02:58:10;53361.31;;;-138.23;83.78
13434;BME280;6789;47.678;9.158;2023-11-19T03:03:27;53329.16;;;-138.23;85.47
13434;BME280;6789;47.678;9.158;2023-11-19T03:14:19;53329.16;;;-138.23;88.40
13434;BME280;6789;47.678;9.158;2023-11-19T03:19:11;53349.25;;;-138.23;88.88
13434;BME280;6789;47.678;9.158;2023-11-19T03:24:03;53331.19;;;-138.23;89.35
13434;BME280;6789;47.678;9.158;2023-11-19T03:28:55;53353.25;;;-138.23;89.79
13434;BME280;6789;47.678;9.158;2023-11-19T03:33:48;53349.25;;;-138.23;90.19
13434;BME280;6789;47.678;9.158;2023-11-19T03:38:40;53325.16;;;-138.23;89.40
13434;BME280;6789;47.678;9.158;2023-11-19T03:43:34;53337.19;;;-138.23;89.01
13434;BME280;6789;47.678;9.158;2023-11-19T03:48:40;53325.16;;;-138.23;86.92
13434;BME280;6789;47.678;9.158;2023-11-19T03:53:32;53337.19;;;-138.23;84.92
13434;BME280;6789;47.678;9.158;2023-11-19T03:58:23;53337.19;;;-138.23;84.70
13434;BME280;6789;47.678;9.158;2023-11-19T04:03:15;53325.16;;;-138.23;86.31
13434;BME280;6789;47.678;9.158;2023-11-19T04:08:07;53276.97;;;-138.23;88.06
13434;BME280;6789;47.678;9.158;2023-11-19T04:12:59;53337.19;;;-138.23;89.83
13434;BME280;6789;47.678;9.158;2023-11-19T04:17:50;53331.19;;;-138.23;90.74
13434;BME280;6789;47.678;9.158;2023-11-19T04:22:42;53319.13;;;-138.23;90.72
13434;BME280;6789;47.678;9.158;2023-11-19T04:27:34;53321.13;;;-138.23;91.69
13434;BME280;6789;47.678;9.158;2023-11-19T04:32:26;53357.28;;;-138.23;92.55
13434;BME280;6789;47.678;9.158;2023-11-19T04:37:18;53345.22;;;-138.23;92.86
13434;BME280;6789;47.678;9.158;2023-11-19T04:42:10;53339.22;;;-138.23;92.46
13434;BME280;6789;47.678;9.158;2023-11-19T04:47:02;53321.13;;;-138.23;91.61
13434;BME280;6789;47.678;9.158;2023-11-19T04:51:54;53305.06;;;-138.23;92.00
13434;BME280;6789;47.678;9.158;2023-11-19T04:56:46;53297.03;;;-138.23;91.80
13434;BME280;6789;47.678;9.158;2023-11-19T05:01:38;53331.19;;;-138.23;92.19
13434;BME280;6789;47.678;9.158;2023-11-19T05:06:31;53335.19;;;-138.23;91.20
13434;BME280;6789;47.678;9.158;2023-11-19T05:11:23;53303.06;;;-138.23;91.24
13434;BME280;6789;47.678;9.158;2023-11-19T05:16:15;53313.09;;;-138.23;91.37
13434;BME280;6789;47.678;9.158;2023-11-19T05:21:07;53341.22;;;-138.23;90.67
13434;BME280;6789;47.678;9.158;2023-11-19T05:26:02;53353.25;;;-138.23;92.26
13434;BME280;6789;47.678;9.158;2023-11-19T05:30:58;53303.06;;;-138.23;92.77
13434;BME280;6789;47.678;9.158;2023-11-19T05:35:50;53321.13;;;-138.23;93.77
13434;BME280;6789;47.678;9.158;2023-11-19T05:40:41;53317.13;;;-138.23;94.47
13434;BME280;6789;47.678;9.158;2023-11-19T05:45:33;53307.09;;;-138.23;94.68
13434;BME280;6789;47.678;9.158;2023-11-19T05:50:25;53339.22;;;-138.23;93.97
13434;BME280;6789;47.678;9.158;2023-11-19T05:55:17;53297.03;;;-138.23;92.02
13434;BME280;6789;47.678;9.158;2023-11-19T06:00:09;53270.94;;;-138.23;91.83
13434;BME280;6789;47.678;9.158;2023-11-19T06:05:02;53303.06;;;-138.23;91.98
13434;BME280;6789;47.678;9.158;2023-11-19T06:09:54;53321.13;;;-138.23;93.36
13434;BME280;6789;47.678;9.158;2023-11-19T06:14:46;53299.06;;;-138.23;91.88
13434;BME280;6789;47.678;9.158;2023-11-19T06:19:37;53301.06;;;-138.23;89.98
13434;BME280;6789;47.678;9.158;2023-11-19T06:24:30;53291.03;;;-138.23;89.50
13434;BME280;6789;47.678;9.158;2023-11-19T06:29:22;53295.03;;;-138.23;89.88
13434;BME280;6789;47.678;9.158;2023-11-19T06:34:13;53317.13;;;-138.23;90.86
13434;BME280;6789;47.678;9.158;2023-11-19T06:39:05;53317.13;;;-138.23;92.14
13434;BME280;6789;47.678;9.158;2023-11-19T06:43:57;53268.94;;;-138.23;92.54
13434;BME280;6789;47.678;9.158;2023-11-19T06:48:49;53299.06;;;-138.23;93.29
13434;BME280;6789;47.678;9.158;2023-11-19T06:53:42;53299.06;;;-138.23;93.36
13434;BME280;6789;47.678;9.158;2023-11-19T06:58:38;53327.16;;;-138.23;93.88
13434;BME280;6789;47.678;9.158;2023-11-19T07:03:31;53278.97;;;-138.23;92.61
13434;BME280;6789;47.678;9.158;2023-11-19T07:08:23;53309.09;;;-138.23;92.08
13434;BME280;6789;47.678;9.158;2023-11-19T07:13:15;53276.97;;;-138.23;92.05
13434;BME280;6789;47.678;9.158;2023-11-19T07:18:07;53301.06;;;-138.23;91.76
13434;BME280;6789;47.678;9.158;2023-11-19T07:22:59;53264.91;;;-138.23;92.10
13434;BME280;6789;47.678;9.158;2023-11-19T07:27:51;53268.94;;;-138.23;91.12
13434;BME280;6789;47.678;9.158;2023-11-19T07:32:44;53252.88;;;-138.23;90.90
13434;BME280;6789;47.678;9.158;2023-11-19T07:37:36;53276.97;;;-138.23;89.08
13434;BME280;6789;47.678;9.158;2023-11-19T07:42:27;53272.94;;;-138.23;87.74
13434;BME280;6789;47.678;9.158;2023-11-19T07:47:20;53274.94;;;-138.23;87.26
13434;BME280;6789;47.678;9.158;2023-11-19T07:52:15;53260.91;;;-138.23;87.03
13434;BME280;6789;47.678;9.158;2023-11-19T07:57:09;53260.91;;;-138.23;87.17
13434;BME280;6789;47.678;9.158;2023-11-19T08:02:02;53285.00;;;-138.23;86.41
13434;BME280;6789;47.678;9.158;2023-11-19T08:06:53;53240.81;;;-138.23;86.52
13434;BME280;6789;47.678;9.158;2023-11-19T08:11:45;53264.91;;;-138.23;86.71
13434;BME280;6789;47.678;9.158;2023-11-19T08:16:39;53226.75;;;-138.23;86.43
13434;BME280;6789;47.678;9.158;2023-11-19T08:21:31;53248.84;;;-138.23;87.02
13434;BME280;6789;47.678;9.158;2023-11-19T08:26:23;53248.84;;;-138.23;87.47
13434;BME280;6789;47.678;9.158;2023-11-19T08:31:14;53252.88;;;-138.23;87.44
13434;BME280;6789;47.678;9.158;2023-11-19T08:36:07;53287.00;;;-138.23;87.06
13434;BME280;6789;47.678;9.158;2023-11-19T08:40:59;53236.81;;;-138.23;85.59
13434;BME280;6789;47.678;9.158;2023-11-19T08:45:52;53289.00;;;-138.23;85.69
13434;BME280;6789;47.678;9.158;2023-11-19T08:50:44;53244.84;;;-138.23;85.57
13434;BME280;6789;47.678;9.158;2023-11-19T08:55:35;53262.91;;;-138.23;84.41
13434;BME280;6789;47.678;9.158;2023-11-19T09:00:28;53228.78;;;-138.23;83.38
13434;BME280;6789;47.678;9.158;2023-11-19T09:05:21;53238.81;;;-138.23;84.01
13434;BME280;6789;47.678;9.158;2023-11-19T09:10:13;53285.00;;;-138.23;84.88
13434;BME280;6789;47.678;9.158;2023-11-19T09:15:05;53238.81;;;-138.23;84.93
13434;BME280;6789;47.678;9.158;2023-11-19T09:19:58;53254.88;;;-138.23;86.65
13434;BME280;6789;47.678;9.158;2023-11-19T09:24:49;53272.94;;;-138.23;86.95
13434;BME280;6789;47.678;9.158;2023-11-19T09:29:41;53252.88;;;-138.23;87.64
13434;BME280;6789;47.678;9.158;2023-11-19T09:34:34;53256.88;;;-138.23;87.36
13434;BME280;6789;47.678;9.158;2023-11-19T09:39:27;53220.75;;;-138.23;87.53
13434;BME280;6789;47.678;9.158;2023-11-19T09:44:19;53240.81;;;-138.23;86.63
13434;BME280;6789;47.678;9.158;2023-11-19T09:49:12;53242.81;;;-138.23;85.75
13434;BME280;6789;47.678;9.158;2023-11-19T09:54:04;53258.88;;;-138.23;86.17
13434;BME280;6789;47.678;9.158;2023-11-19T09:58:57;53224.75;;;-138.23;87.18
13434;BME280;6789;47.678;9.158;2023-11-19T10:03:50;53244.84;;;-138.23;87.43
13434;BME280;6789;47.678;9.158;2023-11-19T10:08:44;53244.84;;;-138.23;88.21
13434;BME280;6789;47.678;9.158;2023-11-19T10:13:37;53230.78;;;-138.23;87.53
13434;BME280;6789;47.678;9.158;2023-11-19T10:18:29;53194.63;;;-138.23;85.76
13434;BME280;6789;47.678;9.158;2023-11-19T10:23:21;53218.72;;;-138.23;83.07
13434;BME280;6789;47.678;9.158;2023-11-19T10:28:15;53244.84;;;-138.23;79.44
13434;BME280;6789;47.678;9.158;2023-11-19T10:33:09;53198.66;;;-138.23;77.50
13434;BME280;6789;47.678;9.158;2023-11-19T10:38:14;53212.72;;;-138.23;75.01
13434;BME280;6789;47.678;9.158;2023-11-19T10:43:10;53152.47;;;-138.23;75.36
13434;BME280;6789;47.678;9.158;2023-11-19T10:48:03;53162.50;;;-138.23;74.42
13434;BME280;6789;47.678;9.158;2023-11-19T10:52:59;53196.63;;;-138.23;74.68
13434;BME280;6789;47.678;9.158;2023-11-19T10:57:51;53160.50;;;-138.23;75.25
13434;BME280;6789;47.678;9.158;2023-11-19T11:02:47;53194.63;;;-138.23;76.23
13434;BME280;6789;47.678;9.158;2023-11-19T11:07:44;53186.59;;;-138.23;75.93
13434;BME280;6789;47.678;9.158;2023-11-19T11:12:37;53186.59;;;-138.23;76.41
13434;BME280;6789;47.678;9.158;2023-11-19T11:17:31;53172.53;;;-138.23;76.31
13434;BME280;6789;47.678;9.158;2023-11-19T11:22:28;53188.59;;;-138.23;74.38
13434;BME280;6789;47.678;9.158;2023-11-19T11:28:15;53188.59;;;-138.23;73.89
13434;BME280;6789;47.678;9.158;2023-11-19T11:33:32;53142.44;;;-138.23;71.06
13434;BME280;6789;47.678;9.158;2023-11-19T11:38:28;53150.47;;;-138.23;70.60
13434;BME280;6789;47.678;9.158;2023-11-19T11:43:59;53180.56;;;-138.23;71.53
13434;BME280;6789;47.678;9.158;2023-11-19T11:48:53;53136.41;;;-138.23;71.45
13434;BME280;6789;47.678;9.158;2023-11-19T11:53:47;53140.41;;;-138.23;71.62
13434;BME280;6789;47.678;9.158;2023-11-19T11:58:40;53184.59;;;-138.23;72.61
13434;BME280;6789;47.678;9.158;2023-11-19T12:03:37;53162.50;;;-138.23;73.48
13434;BME280;6789;47.678;9.158;2023-11-19T12:08:30;53180.56;;;-138.23;73.76
13434;BME280;6789;47.678;9.158;2023-11-19T12:13:21;53154.47;;;-138.23;73.80
13434;BME280;6789;47.678;9.158;2023-11-19T12:18:19;53192.63;;;-138.23;73.91
13434;BME280;6789;47.678;9.158;2023-11-19T12:23:11;53164.50;;;-138.23;74.26
13434;BME280;6789;47.678;9.158;2023-11-19T12:28:03;53174.56;;;-138.23;74.39
13434;BME280;6789;47.678;9.158;2023-11-19T12:32:56;53172.53;;;-138.23;75.30
13434;BME280;6789;47.678;9.158;2023-11-19T12:37:50;53172.53;;;-138.23;76.67
13434;BME280;6789;47.678;9.158;2023-11-19T12:42:45;53192.63;;;-138.23;76.99
13434;BME280;6789;47.678;9.158;2023-11-19T12:47:41;53198.66;;;-138.23;76.08
13434;BME280;6789;47.678;9.158;2023-11-19T12:52:34;53208.69;;;-138.23;76.95
13434;BME280;6789;47.678;9.158;2023-11-19T12:57:42;53206.69;;;-138.23;76.98
13434;BME280;6789;47.678;9.158;2023-11-19T13:02:53;53200.66;;;-138.23;77.03
13434;BME280;6789;47.678;9.158;2023-11-19T13:07:45;53184.59;;;-138.23;77.69
13434;BME280;6789;47.678;9.158;2023-11-19T13:12:37;53184.59;;;-138.23;77.17
13434;BME280;6789;47.678;9.158;2023-11-19T13:17:29;53154.47;;;-138.23;74.93
13434;BME280;6789;47.678;9.158;2023-11-19T13:22:21;53180.56;;;-138.23;73.47
13434;BME280;6789;47.678;9.158;2023-11-19T13:27:13;53196.63;;;-138.23;73.80
13434;BME280;6789;47.678;9.158;2023-11-19T13:32:05;53162.50;;;-138.23;75.74
13434;BME280;6789;47.678;9.158;2023-11-19T13:36:57;53176.56;;;-138.23;75.92
13434;BME280;6789;47.678;9.158;2023-11-19T13:41:49;53184.59;;;-138.23;75.93
13434;BME280;6789;47.678;9.158;2023-11-19T13:46:44;53184.59;;;-138.23;75.03
13434;BME280;6789;47.678;9.158;2023-11-19T13:51:36;53210.69;;;-138.23;75.16
13434;BME280;6789;47.678;9.158;2023-11-19T13:56:29;53166.53;;;-138.23;75.79
13434;BME280;6789;47.678;9.158;2023-11-19T14:01:20;53170.53;;;-138.23;75.93
13434;BME280;6789;47.678;9.158;2023-11-19T14:06:15;53168.53;;;-138.23;74.78
13434;BME280;6789;47.678;9.158;2023-11-19T14:11:07;53200.66;;;-138.23;75.58
13434;BME280;6789;47.678;9.158;2023-11-19T14:15:59;53188.59;;;-138.23;75.56
13434;BME280;6789;47.678;9.158;2023-11-19T14:20:51;53200.66;;;-138.23;75.46
13434;BME280;6789;47.678;9.158;2023-11-19T14:25:43;53210.69;;;-138.23;74.49
13434;BME280;6789;47.678;9.158;2023-11-19T14:30:35;53228.78;;;-138.23;74.76
13434;BME280;6789;47.678;9.158;2023-11-19T14:35:27;53192.63;;;-138.23;75.05
13434;BME280;6789;47.678;9.158;2023-11-19T14:40:19;53214.72;;;-138.23;75.07
13434;BME280;6789;47.678;9.158;2023-11-19T14:45:10;53200.66;;;-138.23;75.56
13434;BME280;6789;47.678;9.158;2023-11-19T14:50:04;53200.66;;;-138.23;75.66
13434;BME280;6789;47.678;9.158;2023-11-19T14:54:57;53196.63;;;-138.23;76.51
13434;BME280;6789;47.678;9.158;2023-11-19T14:59:49;53226.75;;;-138.23;77.42
13434;BME280;6789;47.678;9.158;2023-11-19T15:04:41;53196.63;;;-138.23;78.74
13434;BME280;6789;47.678;9.158;2023-11-19T15:09:36;53236.81;;;-138.23;80.09
13434;BME280;6789;47.678;9.158;2023-11-19T15:14:28;53232.78;;;-138.23;81.95
13434;BME280;6789;47.678;9.158;2023-11-19T15:19:20;53206.69;;;-138.23;82.17
13434;BME280;6789;47.678;9.158;2023-11-19T15:24:12;53204.66;;;-138.23;83.33
13434;BME280;6789;47.678;9.158;2023-11-19T15:29:05;53248.84;;;-138.23;83.57
13434;BME280;6789;47.678;9.158;2023-11-19T15:33:57;53212.72;;;-138.23;84.25
13434;BME280;6789;47.678;9.158;2023-11-19T15:38:49;53260.91;;;-138.23;85.00
13434;BME280;6789;47.678;9.158;2023-11-19T15:43:45;53248.84;;;-138.23;85.24
13434;BME280;6789;47.678;9.158;2023-11-19T15:48:37;53260.91;;;-138.23;85.34
13434;BME280;6789;47.678;9.158;2023-11-19T15:53:30;53240.81;;;-138.23;85.65
13434;BME280;6789;47.678;9.158;2023-11-19T15:58:24;53210.69;;;-138.23;85.80
13434;BME280;6789;47.678;9.158;2023-11-19T16:03:16;53250.84;;;-138.23;85.25
13434;BME280;6789;47.678;9.158;2023-11-19T16:08:08;53226.75;;;-138.23;84.37
13434;BME280;6789;47.678;9.158;2023-11-19T16:13:02;53222.75;;;-138.23;84.33
13434;BME280;6789;47.678;9.158;2023-11-19T16:17:54;53252.88;;;-138.23;84.22
13434;BME280;6789;47.678;9.158;2023-11-19T16:22:46;53266.91;;;-138.23;84.83
13434;BME280;6789;47.678;9.158;2023-11-19T16:27:37;53248.84;;;-138.23;85.51
13434;BME280;6789;47.678;9.158;2023-11-19T16:32:31;53256.88;;;-138.23;86.08
13434;BME280;6789;47.678;9.158;2023-11-19T16:37:23;53262.91;;;-138.23;86.93
13434;BME280;6789;47.678;9.158;2023-11-19T16:42:14;53252.88;;;-138.23;87.67
13434;BME280;6789;47.678;9.158;2023-11-19T16:47:07;53264.91;;;-138.23;88.48
13434;BME280;6789;47.678;9.158;2023-11-19T16:51:59;53264.91;;;-138.23;88.27
13434;BME280;6789;47.678;9.158;2023-11-19T16:56:52;53244.84;;;-138.23;88.99
13434;BME280;6789;47.678;9.158;2023-11-19T17:01:44;53258.88;;;-138.23;88.48
13434;BME280;6789;47.678;9.158;2023-11-19T17:06:38;53276.97;;;-138.23;89.76
13434;BME280;6789;47.678;9.158;2023-11-19T17:11:31;53270.94;;;-138.23;89.55
13434;BME280;6789;47.678;9.158;2023-11-19T17:16:23;53260.91;;;-138.23;89.37
13434;BME280;6789;47.678;9.158;2023-11-19T17:21:15;53278.97;;;-138.23;88.32
13434;BME280;6789;47.678;9.158;2023-11-19T17:26:06;53289.00;;;-138.23;88.95
13434;BME280;6789;47.678;9.158;2023-11-19T17:30:59;53268.94;;;-138.23;87.04
13434;BME280;6789;47.678;9.158;2023-11-19T17:35:51;53242.81;;;-138.23;86.60
13434;BME280;6789;47.678;9.158;2023-11-19T17:40:43;53278.97;;;-138.23;85.71
13434;BME280;6789;47.678;9.158;2023-11-19T17:45:35;53254.88;;;-138.23;84.84
13434;BME280;6789;47.678;9.158;2023-11-19T17:50:27;53254.88;;;-138.23;84.14
13434;BME280;6789;47.678;9.158;2023-11-19T17:55:19;53248.84;;;-138.23;83.51
13434;BME280;6789;47.678;9.158;2023-11-19T18:00:12;53268.94;;;-138.23;84.02
13434;BME280;6789;47.678;9.158;2023-11-19T18:05:06;53268.94;;;-138.23;83.77
13434;BME280;6789;47.678;9.158;2023-11-19T18:09:58;53264.91;;;-138.23;84.19
13434;BME280;6789;47.678;9.158;2023-11-19T18:14:51;53268.94;;;-138.23;85.16
13434;BME280;6789;47.678;9.158;2023-11-19T18:19:45;53264.91;;;-138.23;85.57
13434;BME280;6789;47.678;9.158;2023-11-19T18:24:37;53256.88;;;-138.23;86.75
13434;BME280;6789;47.678;9.158;2023-11-19T18:29:29;53262.91;;;-138.23;88.17
13434;BME280;6789;47.678;9.158;2023-11-19T18:34:21;53240.81;;;-138.23;87.98
13434;BME280;6789;47.678;9.158;2023-11-19T18:39:13;53258.88;;;-138.23;87.45
13434;BME280;6789;47.678;9.158;2023-11-19T18:44:05;53272.94;;;-138.23;87.40
13434;BME280;6789;47.678;9.158;2023-11-19T18:49:01;53280.97;;;-138.23;86.39
13434;BME280;6789;47.678;9.158;2023-11-19T18:53:54;53258.88;;;-138.23;86.83
13434;BME280;6789;47.678;9.158;2023-11-19T18:58:46;53280.97;;;-138.23;87.05
13434;BME280;6789;47.678;9.158;2023-11-19T19:03:39;53260.91;;;-138.23;84.49
13434;BME280;6789;47.678;9.158;2023-11-19T19:08:32;53252.88;;;-138.23;83.89
13434;BME280;6789;47.678;9.158;2023-11-19T19:13:24;53226.75;;;-138.23;82.80
13434;BME280;6789;47.678;9.158;2023-11-19T19:18:16;53289.00;;;-138.23;82.61
13434;BME280;6789;47.678;9.158;2023-11-19T19:23:09;53232.78;;;-138.23;83.23
13434;BME280;6789;47.678;9.158;2023-11-19T19:28:01;53236.81;;;-138.23;83.31
13434;BME280;6789;47.678;9.158;2023-11-19T19:32:56;53270.94;;;-138.23;83.75
13434;BME280;6789;47.678;9.158;2023-11-19T19:37:48;53250.84;;;-138.23;83.24
13434;BME280;6789;47.678;9.158;2023-11-19T19:42:40;53268.94;;;-138.23;82.88
13434;BME280;6789;47.678;9.158;2023-11-19T19:47:32;53208.69;;;-138.23;82.22
13434;BME280;6789;47.678;9.158;2023-11-19T19:52:24;53285.00;;;-138.23;81.73
13434;BME280;6789;47.678;9.158;2023-11-19T19:57:19;53246.84;;;-138.23;79.88
13434;BME280;6789;47.678;9.158;2023-11-19T20:02:12;53252.88;;;-138.23;79.69
13434;BME280;6789;47.678;9.158;2023-11-19T20:07:03;53270.94;;;-138.23;79.37
13434;BME280;6789;47.678;9.158;2023-11-19T20:11:55;53248.84;;;-138.23;78.21
13434;BME280;6789;47.678;9.158;2023-11-19T20:16:49;53224.75;;;-138.23;79.25
13434;BME280;6789;47.678;9.158;2023-11-19T20:22:01;53252.88;;;-138.23;80.90
13434;BME280;6789;47.678;9.158;2023-11-19T20:26:53;53234.78;;;-138.23;81.43
13434;BME280;6789;47.678;9.158;2023-11-19T20:31:45;53244.84;;;-138.23;81.35
13434;BME280;6789;47.678;9.158;2023-11-19T20:36:37;53254.88;;;-138.23;81.52
13434;BME280;6789;47.678;9.158;2023-11-19T20:41:30;53254.88;;;-138.23;81.22
13434;BME280;6789;47.678;9.158;2023-11-19T20:46:21;53236.81;;;-138.23;81.11
13434;BME280;6789;47.678;9.158;2023-11-19T20:51:18;53196.63;;;-138.23;80.77
13434;BME280;6789;47.678;9.158;2023-11-19T20:56:15;53254.88;;;-138.23;81.11
13434;BME280;6789;47.678;9.158;2023-11-19T21:01:07;53248.84;;;-138.23;80.65
13434;BME280;6789;47.678;9.158;2023-11-19T21:05:59;53248.84;;;-138.23;79.97
13434;BME280;6789;47.678;9.158;2023-11-19T21:10:50;53240.81;;;-138.23;80.26
13434;BME280;6789;47.678;9.158;2023-11-19T21:15:43;53262.91;;;-138.23;79.19
13434;BME280;6789;47.678;9.158;2023-11-19T21:20:49;53226.75;;;-138.23;78.85
13434;BME280;6789;47.678;9.158;2023-11-19T21:25:41;53226.75;;;-138.23;77.90
13434;BME280;6789;47.678;9.158;2023-11-19T21:30:32;53242.81;;;-138.23;78.10
13434;BME280;6789;47.678;9.158;2023-11-19T21:35:25;53280.97;;;-138.23;76.29
13434;BME280;6789;47.678;9.158;2023-11-19T21:40:17;53244.84;;;-138.23;75.12
13434;BME280;6789;47.678;9.158;2023-11-19T21:45:08;53232.78;;;-138.23;74.12
13434;BME280;6789;47.678;9.158;2023-11-19T21:50:01;53289.00;;;-138.23;73.60
13434;BME280;6789;47.678;9.158;2023-11-19T21:54:53;53240.81;;;-138.23;73.71
13434;BME280;6789;47.678;9.158;2023-11-19T21:59:44;53252.88;;;-138.23;73.44
13434;BME280;6789;47.678;9.158;2023-11-19T22:04:36;53220.75;;;-138.23;73.44
13434;BME280;6789;47.678;9.158;2023-11-19T22:09:28;53262.91;;;-138.23;72.70
13434;BME280;6789;47.678;9.158;2023-11-19T22:14:20;53240.81;;;-138.23;72.52
13434;BME280;6789;47.678;9.158;2023-11-19T22:19:13;53260.91;;;-138.23;72.09
13434;BME280;6789;47.678;9.158;2023-11-19T22:24:05;53258.88;;;-138.23;72.09
13434;BME280;6789;47.678;9.158;2023-11-19T22:28:57;53252.88;;;-138.23;72.53
13434;BME280;6789;47.678;9.158;2023-11-19T22:33:51;53250.84;;;-138.23;73.54
13434;BME280;6789;47.678;9.158;2023-11-19T22:38:43;53260.91;;;-138.23;73.93
13434;BME280;6789;47.678;9.158;2023-11-19T22:43:34;53246.84;;;-138.23;73.31
13434;BME280;6789;47.678;9.158;2023-11-19T22:48:26;53270.94;;;-138.23;72.44
13434;BME280;6789;47.678;9.158;2023-11-19T22:53:18;53274.94;;;-138.23;72.85
13434;BME280;6789;47.678;9.158;2023-11-19T22:58:10;53260.91;;;-138.23;73.97
13434;BME280;6789;47.678;9.158;2023-11-19T23:03:02;53278.97;;;-138.23;74.49
13434;BME280;6789;47.678;9.158;2023-11-19T23:08:08;53260.91;;;-138.23;74.95
13434;BME280;6789;47.678;9.158;2023-11-19T23:13:16;53311.09;;;-138.23;75.03
13434;BME280;6789;47.678;9.158;2023-11-19T23:18:10;53256.88;;;-138.23;75.03
13434;BME280;6789;47.678;9.158;2023-11-19T23:23:01;53276.97;;;-138.23;75.70
13434;BME280;6789;47.678;9.158;2023-11-19T23:27:53;53272.94;;;-138.23;73.46
13434;BME280;6789;47.678;9.158;2023-11-19T23:32:45;53252.88;;;-138.23;72.58
13434;BME280;6789;47.678;9.158;2023-11-19T23:37:37;53256.88;;;-138.23;71.74
13434;BME280;6789;47.678;9.158;2023-11-19T23:42:29;53242.81;;;-138.23;69.99
13434;BME280;6789;47.678;9.158;2023-11-19T23:47:21;53234.78;;;-138.23;67.52
13434;BME280;6789;47.678;9.158;2023-11-19T23:52:13;53244.84;;;-138.23;66.88
13434;BME280;6789;47.678;9.158;2023-11-19T23:57:05;53258.88;;;-138.23;66.44
